W. T. Toutant — WDC6564 — position and weather

sailwx.info

Track history (hours):
 
Tides and Currents Weather Stations Pressure Air Temp Water Temp Dewpoint Dewpoint Depression Visibility Wind Speed Wind Dir Waves Ship Positions

W. T. Toutant

Owner: American Commercial Lines LLC, Jeffersonville, IN. More information available from US FCC via Universal Licensing System and Coast Guard Vessel Documentation Center.

Last reported at 2017-Oct-22 09:41 UTC. Time now 2017-Nov-25 02:02 UTC.
Position N 32°38' W 091°09'.
Warning: this ship's position is 33 days out of date.

Length 48 m; draft 2.9 m.

Type: Towing. MMSI: 367057940.

Date/timePositionNaut miles runAvg speedWind from/ knotsBaromVisibWave heightAir tempDewpointWater temp
2017-Oct-22 09:41N 32°38' W 091°09'0 2.6
2017-Oct-22 09:30N 32°38' W 091°09'1 2.6
2017-Oct-22 09:01N 32°36' W 091°09'1 2.6
2017-Oct-22 08:28N 32°35' W 091°08'2 3.4
2017-Oct-22 08:00N 32°34' W 091°06'1 2.7
2017-Oct-22 07:30N 32°33' W 091°06'3 3.7
2017-Oct-22 06:39N 32°30' W 091°07'1 4.2
2017-Oct-22 06:30N 32°29' W 091°07'2 3.8
2017-Oct-22 06:01N 32°28' W 091°06'2 3.8
2017-Oct-22 05:31N 32°27' W 091°04'2 3.6
2017-Oct-22 05:00N 32°26' W 091°02'2 3.5
2017-Oct-22 04:31N 32°25' W 091°00'1 2.7
2017-Oct-22 04:00N 32°24' W 090°59'1 2.9
2017-Oct-22 03:31N 32°23' W 091°00'1 3.0
2017-Oct-22 03:00N 32°21' W 090°60'2 3.5
2017-Oct-22 02:30N 32°21' W 090°58'2 3.3
2017-Oct-22 02:01N 32°21' W 090°56'2 3.5
2017-Oct-22 01:31N 32°20' W 090°54'2 3.9
2017-Oct-22 01:01N 32°18' W 090°55'0 0.3
2017-Oct-22 00:31N 32°18' W 090°55'0 0.0
2017-Oct-22 00:01N 32°18' W 090°55'0 0.1
2017-Oct-21 23:31N 32°18' W 090°55'1 1.1
2017-Oct-21 23:01N 32°18' W 090°55'2 4.3
2017-Oct-21 22:31N 32°16' W 090°58'2 3.6
2017-Oct-21 22:00N 32°15' W 090°59'2 4.1
2017-Oct-21 21:30N 32°13' W 090°59'2 4.2
2017-Oct-21 21:00N 32°11' W 090°60'2 4.0
2017-Oct-21 20:30N 32°09' W 091°00'5 3.0
2017-Oct-21 18:50N 32°08' W 091°06'1 3.3
2017-Oct-21 18:30N 32°07' W 091°07'5 3.5
2017-Oct-21 16:58N 32°02' W 091°04'2 3.7
2017-Oct-21 16:29N 32°01' W 091°05'  
2017-Oct-17 01:38N 32°07' W 091°06'1 6.8
2017-Oct-17 01:31N 32°07' W 091°07'2 3.0
2017-Oct-17 00:43N 32°08' W 091°04'1 4.4
2017-Oct-17 00:30N 32°07' W 091°03'3 6.1
2017-Oct-17 00:00N 32°09' W 091°00'3 6.2
2017-Oct-16 23:31N 32°12' W 090°59'4 7.9
2017-Oct-16 23:00N 32°16' W 090°58'4 7.8
2017-Oct-16 22:31N 32°19' W 090°54'3 5.4
2017-Oct-16 22:01N 32°21' W 090°56'3 6.5
2017-Oct-16 21:30N 32°22' W 091°00'4 7.1
2017-Oct-16 21:01N 32°25' W 091°00'4 7.7
2017-Oct-16 20:30N 32°27' W 091°05'7 7.0
2017-Oct-16 19:29N 32°34' W 091°06'4 7.5
2017-Oct-16 19:01N 32°37' W 091°09'  
Track history (hours):
 
Tides and Currents Weather Stations Pressure Air Temp Water Temp Dewpoint Dewpoint Depression Visibility Wind Speed Wind Dir Waves Ship Positions

W. T. Toutant

Owner: American Commercial Lines LLC, Jeffersonville, IN. More information available from US FCC via Universal Licensing System and Coast Guard Vessel Documentation Center.

Last reported at 2017-Oct-22 09:41 UTC. Time now 2017-Nov-25 02:02 UTC.
Position N 32°38' W 091°09'.
Warning: this ship's position is 33 days out of date.

Length 48 m; draft 2.9 m.

Type: Towing. MMSI: 367057940.

Date/timePositionNaut miles runAvg speedWind from/ knotsBaromVisibWave heightAir tempDewpointWater temp
2017-Oct-22 09:41N 32°38' W 091°09'0 2.6
2017-Oct-22 09:30N 32°38' W 091°09'1 2.6
2017-Oct-22 09:01N 32°36' W 091°09'1 2.6
2017-Oct-22 08:28N 32°35' W 091°08'2 3.4
2017-Oct-22 08:00N 32°34' W 091°06'1 2.7
2017-Oct-22 07:30N 32°33' W 091°06'3 3.7
2017-Oct-22 06:39N 32°30' W 091°07'1 4.2
2017-Oct-22 06:30N 32°29' W 091°07'2 3.8
2017-Oct-22 06:01N 32°28' W 091°06'2 3.8
2017-Oct-22 05:31N 32°27' W 091°04'2 3.6
2017-Oct-22 05:00N 32°26' W 091°02'2 3.5
2017-Oct-22 04:31N 32°25' W 091°00'1 2.7
2017-Oct-22 04:00N 32°24' W 090°59'1 2.9
2017-Oct-22 03:31N 32°23' W 091°00'1 3.0
2017-Oct-22 03:00N 32°21' W 090°60'2 3.5
2017-Oct-22 02:30N 32°21' W 090°58'2 3.3
2017-Oct-22 02:01N 32°21' W 090°56'2 3.5
2017-Oct-22 01:31N 32°20' W 090°54'2 3.9
2017-Oct-22 01:01N 32°18' W 090°55'0 0.3
2017-Oct-22 00:31N 32°18' W 090°55'0 0.0
2017-Oct-22 00:01N 32°18' W 090°55'0 0.1
2017-Oct-21 23:31N 32°18' W 090°55'1 1.1
2017-Oct-21 23:01N 32°18' W 090°55'2 4.3
2017-Oct-21 22:31N 32°16' W 090°58'2 3.6
2017-Oct-21 22:00N 32°15' W 090°59'2 4.1
2017-Oct-21 21:30N 32°13' W 090°59'2 4.2
2017-Oct-21 21:00N 32°11' W 090°60'2 4.0
2017-Oct-21 20:30N 32°09' W 091°00'5 3.0
2017-Oct-21 18:50N 32°08' W 091°06'1 3.3
2017-Oct-21 18:30N 32°07' W 091°07'5 3.5
2017-Oct-21 16:58N 32°02' W 091°04'2 3.7
2017-Oct-21 16:29N 32°01' W 091°05'  
2017-Oct-17 01:38N 32°07' W 091°06'1 6.8
2017-Oct-17 01:31N 32°07' W 091°07'2 3.0
2017-Oct-17 00:43N 32°08' W 091°04'1 4.4
2017-Oct-17 00:30N 32°07' W 091°03'3 6.1
2017-Oct-17 00:00N 32°09' W 091°00'3 6.2
2017-Oct-16 23:31N 32°12' W 090°59'4 7.9
2017-Oct-16 23:00N 32°16' W 090°58'4 7.8
2017-Oct-16 22:31N 32°19' W 090°54'3 5.4
2017-Oct-16 22:01N 32°21' W 090°56'3 6.5
2017-Oct-16 21:30N 32°22' W 091°00'4 7.1
2017-Oct-16 21:01N 32°25' W 091°00'4 7.7
2017-Oct-16 20:30N 32°27' W 091°05'7 7.0
2017-Oct-16 19:29N 32°34' W 091°06'4 7.5
2017-Oct-16 19:01N 32°37' W 091°09'  

Dump ship's entire track history